createdAt,value
2023-03-22T00:01:13.195Z,2.20
2023-03-22T00:03:39.856Z,2.45
2023-03-22T00:06:06.346Z,2.93
2023-03-22T00:08:32.772Z,3.36
2023-03-22T00:10:59.255Z,3.91
2023-03-22T00:13:25.726Z,2.87
2023-03-22T00:15:54.653Z,2.73
2023-03-22T00:18:21.211Z,2.57
2023-03-22T00:20:47.625Z,3.14
2023-03-22T00:23:14.077Z,3.07
2023-03-22T00:25:40.509Z,3.32
2023-03-22T00:28:06.928Z,3.71
2023-03-22T00:30:33.299Z,3.79
2023-03-22T00:32:59.665Z,3.78
2023-03-22T00:35:26.095Z,3.75
2023-03-22T00:37:52.500Z,3.12
2023-03-22T00:40:18.934Z,2.48
2023-03-22T00:42:45.298Z,2.45
2023-03-22T00:45:11.669Z,2.45
2023-03-22T00:47:38.022Z,3.54
2023-03-22T00:50:04.344Z,3.44
2023-03-22T00:52:30.662Z,4.32
2023-03-22T00:54:57.009Z,4.50
2023-03-22T00:57:23.351Z,4.17
2023-03-22T00:59:49.722Z,3.00
2023-03-22T01:02:16.070Z,2.02
2023-03-22T01:04:42.404Z,1.80
2023-03-22T01:12:39.415Z,2.85
2023-03-22T01:15:05.877Z,2.58
2023-03-22T01:17:32.278Z,2.39
2023-03-22T01:19:58.693Z,2.06
2023-03-22T01:22:25.058Z,2.18
2023-03-22T01:24:51.392Z,2.10
2023-03-22T01:27:17.755Z,1.69
2023-03-22T01:29:44.313Z,1.94
2023-03-22T01:32:10.643Z,1.80
2023-03-22T01:34:36.965Z,1.71
2023-03-22T01:37:03.285Z,1.62
2023-03-22T01:39:29.685Z,1.59
2023-03-22T01:41:56.052Z,1.63
2023-03-22T01:44:22.371Z,1.57
2023-03-22T01:49:44.265Z,1.56
2023-03-22T01:52:10.653Z,1.31
2023-03-22T01:54:37.068Z,1.48
2023-03-22T01:57:03.453Z,1.54
2023-03-22T01:59:29.863Z,1.48
2023-03-22T02:01:56.274Z,1.71
2023-03-22T02:04:22.680Z,1.85
2023-03-22T02:06:49.153Z,4.40
2023-03-22T02:09:16.002Z,10.70
2023-03-22T02:14:27.355Z,5.69
2023-03-22T02:16:53.978Z,4.63
2023-03-22T02:19:20.437Z,3.15
2023-03-22T02:21:46.886Z,2.39
2023-03-22T02:24:13.367Z,2.18
2023-03-22T02:26:39.913Z,2.06
2023-03-22T02:31:46.804Z,1.86
2023-03-22T02:34:13.368Z,2.02
2023-03-22T02:36:39.762Z,2.00
2023-03-22T02:39:06.203Z,3.65
2023-03-22T02:41:32.617Z,4.07
2023-03-22T02:43:59.045Z,1.95
2023-03-22T02:46:25.417Z,1.63
2023-03-22T02:48:51.843Z,1.70
2023-03-22T02:51:18.246Z,1.60
2023-03-22T02:53:44.668Z,1.57
2023-03-22T02:56:11.118Z,1.70
2023-03-22T02:58:37.555Z,2.13
2023-03-22T03:01:03.963Z,2.12
2023-03-22T03:03:30.435Z,2.48
2023-03-22T03:05:56.926Z,1.70
2023-03-22T03:08:23.426Z,1.86
2023-03-22T03:10:49.803Z,1.81
2023-03-22T03:13:16.441Z,1.80
2023-03-22T03:15:43.053Z,1.95
2023-03-22T03:18:09.466Z,2.14
2023-03-22T03:20:35.949Z,2.44
2023-03-22T03:23:02.513Z,4.30
2023-03-22T03:25:30.276Z,4.26
2023-03-22T03:28:05.931Z,5.13
2023-03-22T03:30:32.448Z,3.75
2023-03-22T03:32:58.934Z,2.76
2023-03-22T03:35:25.449Z,2.18
2023-03-22T03:37:53.068Z,1.89
2023-03-22T03:40:19.444Z,1.81
2023-03-22T03:42:45.914Z,1.47
2023-03-22T03:45:12.385Z,1.63
2023-03-22T03:47:46.134Z,1.62
2023-03-22T03:50:12.581Z,1.59
2023-03-22T03:52:38.933Z,1.56
2023-03-22T03:55:05.396Z,1.47
2023-03-22T03:57:32.023Z,1.42
2023-03-22T03:59:59.628Z,1.55
2023-03-22T04:02:27.037Z,1.63
2023-03-22T04:04:53.531Z,1.72
2023-03-22T04:07:21.311Z,1.80
2023-03-22T04:09:47.788Z,2.22
2023-03-22T04:12:14.266Z,2.20
2023-03-22T04:14:40.792Z,2.33
2023-03-22T04:17:07.282Z,2.06
2023-03-22T04:19:33.735Z,2.31
2023-03-22T04:22:00.288Z,2.66
2023-03-22T04:24:35.739Z,2.13
2023-03-22T04:27:02.234Z,2.63
2023-03-22T04:29:28.740Z,3.04
2023-03-22T04:31:55.181Z,2.21
2023-03-22T04:34:21.743Z,1.76
2023-03-22T04:36:48.186Z,2.35
2023-03-22T04:39:14.639Z,4.62
2023-03-22T04:41:41.122Z,2.13
2023-03-22T04:44:07.605Z,2.15
2023-03-22T04:46:34.158Z,2.04
2023-03-22T04:49:00.654Z,1.85
2023-03-22T04:51:27.091Z,1.87
2023-03-22T04:53:53.487Z,1.85
2023-03-22T04:56:19.861Z,2.00
2023-03-22T04:58:46.202Z,2.10
2023-03-22T05:01:12.596Z,2.07
2023-03-22T05:03:38.971Z,2.18
2023-03-22T05:06:05.394Z,2.00
2023-03-22T05:08:31.743Z,2.03
2023-03-22T05:10:58.106Z,2.40
2023-03-22T05:13:24.496Z,2.98
2023-03-22T05:15:51.272Z,2.96
2023-03-22T05:18:17.671Z,2.08
2023-03-22T05:20:44.052Z,1.87
2023-03-22T05:23:10.424Z,2.67
2023-03-22T05:25:36.763Z,3.31
2023-03-22T05:28:03.120Z,2.00
2023-03-22T05:30:29.462Z,1.60
2023-03-22T05:33:00.727Z,1.66
2023-03-22T05:35:42.302Z,2.02
2023-03-22T05:38:09.086Z,2.24
2023-03-22T05:40:35.440Z,2.86
2023-03-22T05:43:01.824Z,2.95
2023-03-22T05:45:28.218Z,2.64
2023-03-22T05:50:35.030Z,1.93
2023-03-22T05:53:01.526Z,1.94
2023-03-22T05:55:27.942Z,2.15
2023-03-22T05:57:54.301Z,1.94
2023-03-22T06:00:20.660Z,1.65
2023-03-22T06:02:47.111Z,1.59
2023-03-22T06:05:13.635Z,1.93
2023-03-22T06:07:40.210Z,2.08
2023-03-22T06:10:06.673Z,2.44
2023-03-22T06:12:33.038Z,2.26
2023-03-22T06:14:59.553Z,2.23
2023-03-22T06:17:25.986Z,2.09
2023-03-22T06:19:54.736Z,2.08
2023-03-22T06:22:21.140Z,2.10
2023-03-22T06:24:47.571Z,2.08
2023-03-22T06:27:14.026Z,1.82
2023-03-22T06:29:40.490Z,1.91
2023-03-22T06:32:06.929Z,1.89
2023-03-22T06:34:33.347Z,1.89
2023-03-22T06:36:59.685Z,2.28
2023-03-22T06:39:26.053Z,2.08
2023-03-22T06:41:52.559Z,2.09
2023-03-22T06:44:22.156Z,1.77
2023-03-22T06:46:48.501Z,1.98
2023-03-22T06:49:14.906Z,2.08
2023-03-22T06:51:41.370Z,2.05
2023-03-22T06:54:07.741Z,1.92
2023-03-22T06:56:34.130Z,1.78
2023-03-22T06:59:01.903Z,1.88
2023-03-22T07:01:28.360Z,1.68
2023-03-22T07:03:54.750Z,1.64
2023-03-22T07:06:21.124Z,1.72
2023-03-22T07:08:47.535Z,1.71
2023-03-22T07:11:13.962Z,1.99
2023-03-22T07:13:40.392Z,1.97
2023-03-22T07:16:06.754Z,2.00
2023-03-22T07:18:33.230Z,1.88
2023-03-22T07:20:59.575Z,2.32
2023-03-22T07:23:25.979Z,1.80
2023-03-22T07:25:52.386Z,2.04
2023-03-22T07:28:18.778Z,2.25
2023-03-22T07:36:25.764Z,1.77
2023-03-22T07:38:52.156Z,1.77
2023-03-22T07:41:19.461Z,1.53
2023-03-22T07:43:55.197Z,1.98
2023-03-22T07:49:19.360Z,2.18
2023-03-22T07:51:45.755Z,2.33
2023-03-22T07:54:15.787Z,2.19
2023-03-22T07:56:49.187Z,2.15
2023-03-22T07:59:15.570Z,1.92
2023-03-22T08:01:49.292Z,1.92
2023-03-22T08:04:16.778Z,1.84
2023-03-22T08:06:43.429Z,1.86
2023-03-22T08:09:09.829Z,1.71
2023-03-22T08:11:39.654Z,1.57
2023-03-22T08:14:07.541Z,1.70
2023-03-22T08:16:34.175Z,2.18
2023-03-22T08:19:00.591Z,2.52
2023-03-22T08:21:27.024Z,2.86
2023-03-22T08:23:53.878Z,2.54
2023-03-22T08:26:21.379Z,2.40
2023-03-22T08:31:43.250Z,2.34
2023-03-22T08:34:15.426Z,2.01
2023-03-22T08:36:41.948Z,2.37
2023-03-22T08:39:08.439Z,2.51
2023-03-22T08:41:34.877Z,2.81
2023-03-22T08:44:01.273Z,2.74
2023-03-22T08:46:29.883Z,3.02
2023-03-22T08:48:56.360Z,2.89
2023-03-22T08:51:23.064Z,2.95
2023-03-22T08:53:50.382Z,3.18
2023-03-22T08:56:16.857Z,2.95
2023-03-22T08:58:43.254Z,3.08
2023-03-22T09:01:09.971Z,4.24
2023-03-22T09:03:36.421Z,6.51
2023-03-22T09:06:02.839Z,7.41
2023-03-22T09:08:29.246Z,6.82
2023-03-22T09:10:55.670Z,6.44
2023-03-22T09:13:22.125Z,6.65
2023-03-22T09:15:48.616Z,6.65
2023-03-22T09:18:15.125Z,5.51
2023-03-22T09:20:41.879Z,5.62
2023-03-22T09:23:08.477Z,5.93
2023-03-22T09:25:34.938Z,5.89
2023-03-22T09:28:04.387Z,6.17
2023-03-22T09:30:30.832Z,6.30
2023-03-22T09:32:57.213Z,6.24
2023-03-22T09:35:23.691Z,6.31
2023-03-22T09:37:50.162Z,6.20
2023-03-22T09:40:16.523Z,6.64
2023-03-22T09:42:42.973Z,6.34
2023-03-22T09:45:09.384Z,6.03
2023-03-22T09:47:44.281Z,6.63
2023-03-22T09:50:11.333Z,6.69
2023-03-22T09:52:37.728Z,6.87
2023-03-22T09:55:04.122Z,7.10
2023-03-22T09:57:30.521Z,7.01
2023-03-22T09:59:56.896Z,7.17
2023-03-22T10:02:23.336Z,6.89
2023-03-22T10:04:49.854Z,6.55
2023-03-22T10:07:16.269Z,6.97
2023-03-22T10:09:42.673Z,6.78
2023-03-22T10:12:12.921Z,6.26
2023-03-22T10:14:39.344Z,7.47
2023-03-22T10:17:05.814Z,7.42
2023-03-22T10:19:32.260Z,7.52
2023-03-22T10:21:58.646Z,7.42
2023-03-22T10:24:25.019Z,7.78
2023-03-22T10:26:53.365Z,8.10
2023-03-22T10:29:19.796Z,8.25
2023-03-22T10:31:46.281Z,8.74
2023-03-22T10:34:13.065Z,8.39
2023-03-22T10:36:39.484Z,8.21
2023-03-22T10:39:05.833Z,8.30
2023-03-22T10:41:32.205Z,8.14
2023-03-22T10:43:58.620Z,8.14
2023-03-22T10:46:25.050Z,7.65
2023-03-22T10:48:51.433Z,8.13
2023-03-22T10:51:17.852Z,7.73
2023-03-22T10:53:44.278Z,7.65
2023-03-22T10:56:10.696Z,7.65
2023-03-22T10:58:37.169Z,7.95
2023-03-22T11:01:03.583Z,7.97
2023-03-22T11:03:29.985Z,7.21
2023-03-22T11:05:56.328Z,6.66
2023-03-22T11:08:22.813Z,6.91
2023-03-22T11:10:58.366Z,6.57
2023-03-22T11:13:24.804Z,7.18
2023-03-22T11:15:51.277Z,7.59
2023-03-22T11:18:18.824Z,7.72
2023-03-22T11:20:45.235Z,8.02
2023-03-22T11:23:11.583Z,8.02
2023-03-22T11:25:37.966Z,8.37
2023-03-22T11:28:04.375Z,8.33
2023-03-22T11:30:30.699Z,7.92
2023-03-22T11:32:57.056Z,7.85
2023-03-22T11:35:23.428Z,8.03
2023-03-22T11:37:49.845Z,7.93
2023-03-22T11:40:16.260Z,7.43
2023-03-22T11:42:42.727Z,6.72
2023-03-22T11:45:09.273Z,6.38
2023-03-22T11:47:35.694Z,6.30
2023-03-22T11:50:02.105Z,5.76
2023-03-22T11:52:28.483Z,5.65
2023-03-22T11:54:54.852Z,6.60
2023-03-22T11:57:21.222Z,6.05
2023-03-22T11:59:47.660Z,6.15
2023-03-22T12:02:14.101Z,6.26
2023-03-22T12:04:40.612Z,6.45
2023-03-22T12:07:06.961Z,6.30
2023-03-22T12:09:35.217Z,6.69
2023-03-22T12:12:01.613Z,6.48
2023-03-22T12:14:28.046Z,6.34
2023-03-22T12:16:54.392Z,6.02
2023-03-22T12:19:20.790Z,6.12
2023-03-22T12:21:47.226Z,6.35
2023-03-22T12:24:13.572Z,6.20
2023-03-22T12:26:39.916Z,6.13
2023-03-22T12:29:06.264Z,5.93
2023-03-22T12:31:32.641Z,6.17
2023-03-22T12:33:59.055Z,5.81
2023-03-22T12:36:27.055Z,5.96
2023-03-22T12:38:55.978Z,5.94
2023-03-22T12:41:22.434Z,6.40
2023-03-22T12:43:48.853Z,6.47
2023-03-22T12:46:15.386Z,6.79
2023-03-22T12:48:49.900Z,6.34
2023-03-22T12:51:16.364Z,6.26
2023-03-22T12:53:42.770Z,5.75
2023-03-22T12:56:09.195Z,5.93
2023-03-22T12:58:35.544Z,5.93
2023-03-22T13:01:01.972Z,5.36
2023-03-22T13:03:28.540Z,5.61
2023-03-22T13:05:55.219Z,6.76
2023-03-22T13:08:21.575Z,7.44
2023-03-22T13:10:47.946Z,7.84
2023-03-22T13:13:14.401Z,6.69
2023-03-22T13:15:42.248Z,7.09
2023-03-22T13:18:09.082Z,6.71
2023-03-22T13:20:35.454Z,7.13
2023-03-22T13:23:01.841Z,8.09
2023-03-22T13:25:28.207Z,7.59
2023-03-22T13:27:54.631Z,6.31
2023-03-22T13:30:21.051Z,5.49
2023-03-22T13:32:47.470Z,5.25
2023-03-22T13:35:23.493Z,5.39
2023-03-22T13:37:49.985Z,5.07
2023-03-22T13:40:16.337Z,4.72
2023-03-22T13:42:42.708Z,4.43
2023-03-22T13:45:09.072Z,5.03
2023-03-22T13:47:35.664Z,5.02
2023-03-22T13:50:06.117Z,4.51
2023-03-22T13:52:33.650Z,3.63
2023-03-22T13:54:59.998Z,3.19
2023-03-22T13:57:26.822Z,3.86
2023-03-22T14:00:03.102Z,4.03
2023-03-22T14:05:15.791Z,3.25
2023-03-22T14:07:42.316Z,2.68
2023-03-22T14:10:08.701Z,2.36
2023-03-22T14:12:35.080Z,2.29
2023-03-22T14:15:01.580Z,2.05
2023-03-22T14:17:28.075Z,2.14
2023-03-22T14:19:54.641Z,2.37
